Time;durP1;ratioP1;P1;durP2;ratioP2;P2;SDS_P1;SDS_P2;PMS_P1;PMS_P2;Temp;Humidity;BMP_temperature;BMP_pressure;BME280_temperature;BME280_humidity;BME280_pressure;Samples;Min_cycle;Max_cycle;Signal;HPM_P1;HPM_P2
2022/08/12 00:44:25;;;;;;;4.78;4.07;;;23.80;81.80;;;;;;5009608;28;20041;-73
2022/08/12 00:46:57;;;;;;;6.95;3.60;;;24.00;79.70;;;;;;5014598;28;20037;-73
2022/08/12 00:49:24;;;;;;;8.45;3.92;;;23.70;81.00;;;;;;5014632;28;20046;-73
2022/08/12 00:52:10;;;;;;;11.57;3.60;;;24.00;79.40;;;;;;5013228;28;20037;-73
2022/08/12 00:54:42;;;;;;;10.88;4.10;;;24.00;79.50;;;;;;5010366;28;20038;-74
2022/08/12 00:57:11;;;;;;;11.93;3.60;;;24.00;80.00;;;;;;5014435;28;20482;-73
2022/08/12 00:59:45;;;;;;;8.88;3.42;;;23.70;80.80;;;;;;5014237;28;20092;-77
2022/08/12 01:02:21;;;;;;;10.55;4.05;;;23.60;82.00;;;;;;5014131;28;20026;-76
2022/08/12 01:13:28;;;;;;;12.98;3.47;;;23.30;83.50;;;;;;5015169;28;20038;-75
2022/08/12 01:16:00;;;;;;;11.00;3.42;;;23.60;83.40;;;;;;5006064;28;20049;-73
2022/08/12 01:18:28;;;;;;;6.55;3.53;;;23.80;81.90;;;;;;5006899;28;20029;-73
2022/08/12 01:21:15;;;;;;;11.80;4.00;;;23.80;81.40;;;;;;4993192;28;20066;-76
2022/08/12 01:23:50;;;;;;;10.82;3.75;;;23.60;82.40;;;;;;5007590;28;20501;-75
2022/08/12 01:26:22;;;;;;;10.90;4.03;;;23.70;82.70;;;;;;5013879;28;20026;-73
2022/08/12 01:28:52;;;;;;;10.52;3.58;;;23.20;84.80;;;;;;5013160;28;20080;-73
2022/08/12 01:31:20;;;;;;;7.07;3.75;;;23.30;85.80;;;;;;5013665;28;20048;-73
2022/08/12 01:33:59;;;;;;;10.30;3.53;;;23.10;85.90;;;;;;5013791;28;20188;-73
2022/08/12 01:36:27;;;;;;;8.48;4.35;;;23.20;87.50;;;;;;5013829;28;20048;-73
2022/08/12 01:38:58;;;;;;;9.15;3.63;;;23.30;86.40;;;;;;5013259;28;20034;-73
2022/08/12 01:41:29;;;;;;;13.32;4.32;;;23.50;85.40;;;;;;5013650;28;20025;-73
2022/08/12 01:43:59;;;;;;;;;;;23.40;85.40;;;;;;5012974;28;20030;-73
2022/08/12 01:46:39;;;;;;;;;;;23.10;86.90;;;;;;5000654;28;20356;-74
2022/08/12 01:49:23;;;;;;;;;;;22.80;87.90;;;;;;5013990;28;19921;-73
2022/08/12 01:51:55;;;;;;;;;;;22.70;88.20;;;;;;5002386;28;19913;-73
2022/08/12 01:54:21;;;;;;;;;;;22.60;90.00;;;;;;5012623;28;19909;-73
2022/08/12 01:56:48;;;;;;;;;;;22.70;89.10;;;;;;5009597;28;19910;-73
2022/08/12 02:02:03;;;;;;;;;;;22.90;89.00;;;;;;5013715;28;20329;-73
2022/08/12 02:11:23;;;;;;;;;;;23.10;87.30;;;;;;5013886;28;19925;-73
2022/08/12 02:13:49;;;;;;;;;;;23.20;84.30;;;;;;5003934;28;19944;-74
2022/08/12 02:16:26;;;;;;;;;;;23.40;84.60;;;;;;4997973;28;19913;-73
2022/08/12 02:19:02;;;;;;;;;;;23.10;85.10;;;;;;5010709;28;19920;-74
2022/08/12 02:21:44;;;;;;;;;;;23.00;85.50;;;;;;5013297;28;19913;-73
2022/08/12 02:24:11;;;;;;;;;;;22.80;86.20;;;;;;5008871;28;19910;-73
2022/08/12 02:26:39;;;;;;;;;;;22.70;87.30;;;;;;5004934;28;19909;-74
2022/08/12 02:29:06;;;;;;;;;;;22.60;86.80;;;;;;5013122;28;19920;-74
2022/08/12 02:31:32;;;;;;;;;;;22.80;87.10;;;;;;5013463;28;19917;-74
2022/08/12 02:33:58;;;;;;;;;;;22.80;86.30;;;;;;5013291;28;20294;-74
2022/08/12 02:36:24;;;;;;;;;;;22.90;88.50;;;;;;5013235;28;20305;-74
2022/08/12 02:38:51;;;;;;;;;;;22.80;87.10;;;;;;5013401;28;19933;-74
2022/08/12 02:41:20;;;;;;;;;;;22.70;89.10;;;;;;5014908;28;20004;-74
2022/08/12 02:43:54;;;;;;;;;;;22.80;88.40;;;;;;5017249;28;19991;-74
2022/08/12 02:46:24;;;;;;;;;;;22.90;87.90;;;;;;5017176;28;19932;-74
2022/08/12 02:49:05;;;;;;;;;;;23.00;86.50;;;;;;5017244;28;20277;-73
2022/08/12 02:51:37;;;;;;;;;;;23.10;86.50;;;;;;5017071;28;20350;-74
2022/08/12 02:54:04;;;;;;;;;;;23.00;86.90;;;;;;5017217;28;19910;-74
2022/08/12 02:56:30;;;;;;;;;;;23.10;87.10;;;;;;5016874;28;19909;-74
2022/08/12 02:58:56;;;;;;;;;;;22.70;90.10;;;;;;5017012;28;19905;-74
2022/08/12 03:01:33;;;;;;;;;;;22.40;90.70;;;;;;5016797;28;20323;-73
2022/08/12 03:04:00;;;;;;;;;;;22.20;91.80;;;;;;5015534;28;19910;-73
2022/08/12 03:06:31;;;;;;;;;;;22.10;92.10;;;;;;5015252;28;20270;-74
2022/08/12 03:08:57;;;;;;;;;;;22.00;93.30;;;;;;5015713;28;20281;-73
2022/08/12 03:11:36;;;;;;;;;;;22.20;92.40;;;;;;5016569;28;20000;-74
2022/08/12 03:14:02;;;;;;;;;;;22.10;92.60;;;;;;5006455;28;20378;-74
2022/08/12 03:16:31;;;;;;;;;;;22.00;92.70;;;;;;5005381;28;19914;-74
2022/08/12 03:18:57;;;;;;;;;;;21.90;92.60;;;;;;5014543;28;19909;-74
2022/08/12 03:21:24;;;;;;;;;;;21.80;93.50;;;;;;5016820;28;19931;-74
2022/08/12 03:23:51;;;;;;;;;;;21.70;93.60;;;;;;5016456;28;20325;-74
2022/08/12 03:26:19;;;;;;;;;;;21.50;94.30;;;;;;5012052;28;19952;-74
2022/08/12 03:28:52;;;;;;;;;;;21.20;95.30;;;;;;5011028;28;19921;-74
2022/08/12 03:31:18;;;;;;;;;;;21.20;96.30;;;;;;5016513;28;19956;-74
2022/08/12 03:33:45;;;;;;;;;;;21.10;96.70;;;;;;5011828;28;20354;-78
2022/08/12 03:36:16;;;;;;;;;;;21.10;97.00;;;;;;5016071;28;19955;-74
2022/08/12 03:38:49;;;;;;;;;;;21.10;96.70;;;;;;5016838;28;19988;-74
2022/08/12 03:41:34;;;;;;;;;;;21.20;97.20;;;;;;5016122;28;19936;-74
2022/08/12 04:00:34;;;;;;;;;;;21.10;96.50;;;;;;5011346;28;19914;-74
2022/08/12 04:03:04;;;;;;;;;;;21.00;95.70;;;;;;5010046;28;19913;-73
2022/08/12 04:05:31;;;;;;;;;;;20.90;96.50;;;;;;5015813;28;20417;-73
2022/08/12 04:07:58;;;;;;;;;;;20.80;96.50;;;;;;5012547;28;20384;-74
2022/08/12 04:13:14;;;;;;;;;;;21.10;96.10;;;;;;5015990;28;19971;-73
2022/08/12 04:13:17;;;;;;;;;;;21.20;96.10;;;;;;5015546;28;19909;-73
2022/08/12 04:15:44;;;;;;;;;;;21.20;96.30;;;;;;5009035;28;19910;-73
2022/08/12 04:18:11;;;;;;;;;;;20.90;96.50;;;;;;5007229;28;19913;-73
2022/08/12 04:20:37;;;;;;;;;;;20.80;97.00;;;;;;5014165;28;19920;-73
2022/08/12 04:23:04;;;;;;;;;;;21.10;96.60;;;;;;5010718;28;20008;-73
2022/08/12 04:25:30;;;;;;;;;;;21.10;96.20;;;;;;5010641;28;20361;-73
2022/08/12 04:27:55;;;;;;;;;;;21.20;95.60;;;;;;5015091;28;19916;-72
2022/08/12 04:30:22;;;;;;;;;;;21.30;95.70;;;;;;5015063;28;19924;-73
2022/08/12 04:32:49;;;;;;;;;;;21.20;95.40;;;;;;4994241;28;19920;-72
2022/08/12 04:35:15;;;;;;;;;;;21.20;95.40;;;;;;5007546;28;20372;-73
2022/08/12 04:37:42;;;;;;;;;;;21.30;95.90;;;;;;5015211;28;20385;-73
2022/08/12 04:40:10;;;;;;;;;;;21.30;96.00;;;;;;5015640;28;20313;-73
2022/08/12 04:42:35;;;;;;;;;;;21.10;96.00;;;;;;5015051;28;20007;-72
2022/08/12 04:45:01;;;;;;;;;;;21.10;96.20;;;;;;5015231;28;19949;-72
2022/08/12 04:47:27;;;;;;;;;;;21.30;95.40;;;;;;5014706;28;19948;-73
2022/08/12 04:49:52;;;;;;;;;;;21.40;95.30;;;;;;5014945;28;19956;-73
2022/08/12 04:52:18;;;;;;;;;;;21.70;94.80;;;;;;5015090;28;19916;-74
2022/08/12 04:54:44;;;;;;;;;;;22.00;93.70;;;;;;5014930;28;19906;-73
2022/08/12 04:57:10;;;;;;;;;;;21.80;93.70;;;;;;5010578;28;20001;-73
2022/08/12 04:59:36;;;;;;;;;;;21.40;94.70;;;;;;5011255;28;19999;-73
2022/08/12 05:02:02;;;;;;;;;;;21.30;96.00;;;;;;5014433;28;20479;-73
2022/08/12 05:04:28;;;;;;;;;;;21.50;95.80;;;;;;5013907;28;20000;-73
2022/08/12 05:06:53;;;;;;;;;;;21.70;96.00;;;;;;5014650;28;20374;-73
2022/08/12 05:09:19;;;;;;;;;;;21.90;94.80;;;;;;5010175;28;20005;-73
2022/08/12 05:11:50;;;;;;;;;;;21.90;95.80;;;;;;5009946;28;19940;-73
2022/08/12 05:14:16;;;;;;;;;;;21.80;96.00;;;;;;5006255;28;20002;-73
2022/08/12 05:16:42;;;;;;;;;;;21.80;96.10;;;;;;5000770;28;20002;-73
2022/08/12 05:19:07;;;;;;;;;;;21.70;96.30;;;;;;5014257;28;19944;-73
2022/08/12 05:21:33;;;;;;;;;;;21.50;96.00;;;;;;5014452;28;19909;-72
2022/08/12 05:23:59;;;;;;;;;;;21.20;97.50;;;;;;5013088;28;20540;-73
2022/08/12 05:26:25;;;;;;;;;;;21.20;98.00;;;;;;5014494;28;20313;-73
2022/08/12 05:28:52;;;;;;;;;;;21.30;97.70;;;;;;4994613;28;19914;-73
2022/08/12 05:31:19;;;;;;;;;;;21.00;98.80;;;;;;5013895;28;19968;-73
2022/08/12 05:33:46;;;;;;;;;;;21.20;98.30;;;;;;4993322;28;20043;-73
2022/08/12 05:36:15;;;;;;;;;;;21.60;97.30;;;;;;5000726;28;20428;-73
2022/08/12 05:38:56;;;;;;;;;;;21.80;97.50;;;;;;5014173;28;19914;-73
2022/08/12 05:41:29;;;;;;;;;;;22.00;96.30;;;;;;5014243;28;20358;-73
2022/08/12 05:43:56;;;;;;;;;;;22.50;94.30;;;;;;5013605;28;20456;-73
2022/08/12 05:46:22;;;;;;;;;;;22.60;94.10;;;;;;5013901;28;19910;-73
2022/08/12 05:48:50;;;;;;;;;;;22.40;94.50;;;;;;5014069;28;19913;-72
2022/08/12 05:51:16;;;;;;;;;;;22.50;94.10;;;;;;5013962;28;19992;-73
2022/08/12 05:53:42;;;;;;;;;;;22.50;93.90;;;;;;5013662;28;19916;-73
2022/08/12 05:56:18;;;;;;;;;;;22.50;93.70;;;;;;5013923;28;19913;-77
2022/08/12 05:58:44;;;;;;;;;;;22.40;93.90;;;;;;5004459;28;19910;-78
2022/08/12 06:01:10;;;;;;;;;;;22.50;93.50;;;;;;5007792;28;19944;-78
2022/08/12 06:03:36;;;;;;;;;;;22.50;93.40;;;;;;5001341;28;19910;-81
2022/08/12 06:06:02;;;;;;;;;;;22.80;93.20;;;;;;5002360;28;19988;-81
2022/08/12 06:08:27;;;;;;;;;;;23.10;92.80;;;;;;4996298;28;19984;-81
2022/08/12 06:10:55;;;;;;;;;;;23.40;92.50;;;;;;5001599;28;19909;-81
2022/08/12 06:13:21;;;;;;;;;;;23.50;91.30;;;;;;5006690;28;20004;-82
2022/08/12 06:15:48;;;;;;;;;;;23.70;91.40;;;;;;5009483;28;19909;-81
2022/08/12 06:18:13;;;;;;;;;;;23.80;91.00;;;;;;5001242;28;19909;-81
2022/08/12 06:20:39;;;;;;;;;;;23.50;91.50;;;;;;5003190;28;19916;-82
2022/08/12 06:23:05;;;;;;;;;;;23.30;91.50;;;;;;5006803;28;19967;-81
2022/08/12 06:25:33;;;;;;;;;;;23.40;92.10;;;;;;5003808;28;19916;-81
2022/08/12 06:28:00;;;;;;;;;;;23.60;91.50;;;;;;5006006;28;19913;-82
2022/08/12 06:30:28;;;;;;;;;;;24.00;90.80;;;;;;5003909;28;19920;-81
2022/08/12 06:32:54;;;;;;;;;;;24.10;90.50;;;;;;4998723;28;20337;-82
2022/08/12 06:35:21;;;;;;;;;;;24.40;90.00;;;;;;5000602;28;19960;-81
2022/08/12 06:37:48;;;;;;;;;;;24.60;89.60;;;;;;5006662;28;19914;-81
2022/08/12 06:40:15;;;;;;;;;;;24.70;89.20;;;;;;5006455;28;19915;-82
2022/08/12 06:42:46;;;;;;;;;;;24.30;90.10;;;;;;5003849;28;19945;-82
2022/08/12 06:45:15;;;;;;;;;;;24.20;90.30;;;;;;5007618;28;19916;-82
2022/08/12 06:47:41;;;;;;;;;;;24.60;89.60;;;;;;4998828;28;19921;-83
2022/08/12 06:50:07;;;;;;;;;;;24.80;88.90;;;;;;5002309;28;19918;-82
2022/08/12 06:52:33;;;;;;;;;;;24.80;88.00;;;;;;5003306;28;19991;-81
2022/08/12 06:54:58;;;;;;;;;;;24.60;89.20;;;;;;5003691;28;19956;-81
2022/08/12 06:57:28;;;;;;;;;;;24.90;88.10;;;;;;5004276;28;20024;-82
2022/08/12 06:59:54;;;;;;;;;;;25.20;87.40;;;;;;4997732;28;19921;-82
2022/08/12 07:02:21;;;;;;;;;;;25.40;86.90;;;;;;5006925;28;19913;-81
2022/08/12 07:04:47;;;;;;;;;;;25.50;86.20;;;;;;5004576;28;19932;-82
2022/08/12 07:07:13;;;;;;;;;;;25.10;87.40;;;;;;5006254;28;19914;-83
2022/08/12 07:09:41;;;;;;;;;;;25.40;87.40;;;;;;5000224;28;19918;-82
2022/08/12 07:12:12;;;;;;;;;;;25.20;86.80;;;;;;5008225;28;19909;-83
2022/08/12 07:14:37;;;;;;;;;;;24.60;89.00;;;;;;5004385;28;19914;-83
2022/08/12 07:17:04;;;;;;;;;;;24.80;89.30;;;;;;5003086;28;19959;-83
2022/08/12 07:19:32;;;;;;;;;;;24.80;88.50;;;;;;5012270;28;19913;-82
2022/08/12 07:22:05;;;;;;;;;;;25.40;86.60;;;;;;5011962;28;20333;-82
2022/08/12 07:24:31;;;;;;;;;;;25.30;86.50;;;;;;5011958;28;19915;-82
2022/08/12 07:26:57;;;;;;;;;;;25.30;87.10;;;;;;5014110;28;19913;-82
2022/08/12 07:29:24;;;;;;;;;;;25.60;86.50;;;;;;5011263;28;19924;-81
2022/08/12 07:31:51;;;;;;;;;;;25.90;85.50;;;;;;5015544;28;19948;-80
2022/08/12 07:34:17;;;;;;;;;;;26.40;85.00;;;;;;5015471;28;20334;-79
2022/08/12 07:36:46;;;;;;;;;;;26.50;83.90;;;;;;5015413;28;19949;-80
2022/08/12 07:39:12;;;;;;;;;;;26.40;83.90;;;;;;5014595;28;20378;-82
2022/08/12 07:41:38;;;;;;;;;;;26.70;82.90;;;;;;5015303;28;19953;-81
2022/08/12 07:44:04;;;;;;;;;;;26.90;82.80;;;;;;5015805;28;19913;-81
2022/08/12 07:46:33;;;;;;;;;;;27.10;82.20;;;;;;5006666;28;19963;-82
2022/08/12 07:49:00;;;;;;;;;;;27.20;81.20;;;;;;5014328;28;19920;-83
2022/08/12 07:51:26;;;;;;;;;;;27.40;80.90;;;;;;5015275;28;19956;-82
2022/08/12 07:53:53;;;;;;;;;;;27.30;81.10;;;;;;5015327;28;19912;-82
2022/08/12 07:56:19;;;;;;;;;;;27.30;80.60;;;;;;5015043;28;19913;-82
2022/08/12 07:58:44;;;;;;;;;;;27.20;80.70;;;;;;5015063;28;20003;-82
2022/08/12 08:01:11;;;;;;;;;;;26.80;82.30;;;;;;5013560;28;19917;-78
2022/08/12 08:03:37;;;;;;;;;;;27.30;80.20;;;;;;5015517;28;19909;-81
2022/08/12 08:06:04;;;;;;;;;;;27.30;80.10;;;;;;5009576;28;20031;-81
2022/08/12 08:08:29;;;;;;;;;;;27.30;79.70;;;;;;5000671;28;20004;-81
2022/08/12 08:12:52;;;;;;;;;;;27.20;79.90;;;;;;5003665;28;20493;-77
2022/08/12 08:13:43;;;;;;;;;;;27.60;79.80;;;;;;5008437;28;20378;-77
2022/08/12 08:16:09;;;;;;;;;;;27.40;79.40;;;;;;5002604;28;19939;-77
2022/08/12 08:18:35;;;;;;;;;;;27.50;77.90;;;;;;5014606;28;19920;-76
2022/08/12 08:21:02;;;;;;;;;;;27.40;78.80;;;;;;5015034;28;19912;-77
2022/08/12 08:24:13;;;;;;;;;;;27.90;78.60;;;;;;5014353;28;19917;-77
2022/08/12 08:26:14;;;;;;;;;;;28.20;77.70;;;;;;5012508;28;20383;-76
2022/08/12 08:28:40;;;;;;;;;;;28.40;77.30;;;;;;5014850;28;20259;-77
2022/08/12 08:31:05;;;;;;;;;;;28.30;77.20;;;;;;5003465;28;19928;-76
2022/08/12 08:33:31;;;;;;;;;;;28.70;77.20;;;;;;5014671;28;19910;-77
2022/08/12 08:35:58;;;;;;;;;;;28.80;76.30;;;;;;5011039;28;19913;-77
2022/08/12 08:38:23;;;;;;;;;;;28.80;76.30;;;;;;5012738;28;19913;-77
2022/08/12 08:43:33;;;;;;;;;;;29.20;75.00;;;;;;5014362;28;19910;-80
2022/08/12 08:46:04;;;;;;;;;;;29.30;74.90;;;;;;5014897;28;20012;-79
2022/08/12 08:48:32;;;;;;;;;;;29.40;74.20;;;;;;5013673;28;19917;-79
2022/08/12 08:50:58;;;;;;;;;;;29.20;74.00;;;;;;5014657;28;19917;-79
2022/08/12 08:53:24;;;;;;;;;;;29.00;73.70;;;;;;5014737;28;19905;-79
2022/08/12 08:55:52;;;;;;;;;;;29.20;73.80;;;;;;5011953;28;19913;-79
2022/08/12 08:58:20;;;;;;;;;;;29.20;72.90;;;;;;4999433;28;19913;-78
2022/08/12 09:00:48;;;;;;;;;;;29.40;74.10;;;;;;5007045;28;19917;-77
2022/08/12 09:03:14;;;;;;;;;;;29.90;72.90;;;;;;5003427;28;19914;-77
2022/08/12 09:05:39;;;;;;;;;;;30.30;73.60;;;;;;5000224;28;19906;-76
2022/08/12 09:08:05;;;;;;;;;;;30.60;71.90;;;;;;5008954;28;20313;-77
2022/08/12 09:10:32;;;;;;;;;;;30.60;71.40;;;;;;5006835;28;20385;-76
2022/08/12 09:15:46;;;;;;;;;;;29.80;73.20;;;;;;5002056;28;19918;-77
2022/08/12 09:18:12;;;;;;;;;;;30.20;72.30;;;;;;5013490;28;19972;-77
2022/08/12 09:20:39;;;;;;;;;;;30.10;71.20;;;;;;5012751;28;20270;-77
2022/08/12 09:23:08;;;;;;;;;;;30.20;71.60;;;;;;5008723;28;19914;-77
2022/08/12 09:25:34;;;;;;;;;;;30.50;71.10;;;;;;5010200;28;19909;-77
2022/08/12 09:28:00;;;;;;;;;;;30.40;72.10;;;;;;5010829;28;20056;-77
2022/08/12 09:30:26;;;;;;;;;;;30.50;71.30;;;;;;5012656;28;19960;-77
2022/08/12 09:32:52;;;;;;;;;;;31.00;71.10;;;;;;5012379;28;19956;-80
2022/08/12 09:35:22;;;;;;;;;;;30.80;70.60;;;;;;5009466;28;19914;-77
2022/08/12 09:37:48;;;;;;;;;;;31.10;69.80;;;;;;5012054;28;19909;-78
2022/08/12 09:40:14;;;;;;;;;;;31.70;69.90;;;;;;5012073;28;20349;-80
2022/08/12 09:45:25;;;;;;;;;;;32.30;68.50;;;;;;4994455;28;20013;-74
2022/08/12 09:47:52;;;;;;;;;;;32.30;66.80;;;;;;4995615;28;19997;-74
2022/08/12 09:50:18;;;;;;;;;;;32.20;67.00;;;;;;5003573;28;19913;-74
2022/08/12 09:52:44;;;;;;;;;;;32.40;67.70;;;;;;4999716;28;19933;-74
2022/08/12 09:55:10;;;;;;;;;;;32.70;66.30;;;;;;4994401;28;19909;-73
2022/08/12 09:57:36;;;;;;;;;;;32.50;66.20;;;;;;5005892;28;19909;-74
2022/08/12 10:00:03;;;;;;;;;;;32.50;66.90;;;;;;5003838;28;19921;-74
2022/08/12 10:02:38;;;;;;;;;;;32.20;66.40;;;;;;5004630;28;19913;-74
2022/08/12 10:05:05;;;;;;;;;;;32.00;66.40;;;;;;4996529;28;19914;-74
2022/08/12 10:07:30;;;;;;;;;;;32.00;66.40;;;;;;5000966;28;19909;-73
2022/08/12 10:09:56;;;;;;;;;;;32.20;65.40;;;;;;4992563;28;19922;-74
2022/08/12 10:15:06;;;;;;;;;;;32.30;64.40;;;;;;4993646;28;19910;-74
2022/08/12 10:17:32;;;;;;;;;;;32.10;64.00;;;;;;4998843;28;19992;-74
2022/08/12 10:19:58;;;;;;;;;;;32.10;64.20;;;;;;5013297;28;19967;-74
2022/08/12 10:22:24;;;;;;;;;;;32.60;63.10;;;;;;5012148;28;19992;-75
2022/08/12 10:30:19;;;;;;;;;;;33.50;63.00;;;;;;5004844;28;19917;-74
2022/08/12 10:32:57;;;;;;;;;;;33.80;62.60;;;;;;5004930;28;20296;-74
2022/08/12 10:35:31;;;;;;;;;;;34.00;61.80;;;;;;4999852;28;19910;-74
2022/08/12 10:38:00;;;;;;;;;;;33.50;63.10;;;;;;4992439;28;19949;-74
2022/08/12 10:40:27;;;;;;;;;;;33.80;62.50;;;;;;5002857;28;19917;-73
2022/08/12 10:45:37;;;;;;;;;;;33.50;61.50;;;;;;4996824;28;19910;-74
2022/08/12 10:48:04;;;;;;;;;;;33.40;61.70;;;;;;4992901;28;20403;-74
2022/08/12 10:50:30;;;;;;;;;;;33.50;61.70;;;;;;4993587;28;20012;-74
2022/08/12 10:52:56;;;;;;;;;;;33.90;61.10;;;;;;4993203;28;19949;-73
2022/08/12 10:55:22;;;;;;;;;;;34.00;61.00;;;;;;4993351;28;19910;-74
2022/08/12 10:57:48;;;;;;;;;;;33.40;61.40;;;;;;4993284;28;20362;-75
2022/08/12 11:00:14;;;;;;;;;;;34.00;61.50;;;;;;4993036;28;19913;-74
2022/08/12 11:02:53;;;;;;;;;;;34.10;61.60;;;;;;4996513;28;20389;-74
2022/08/12 11:05:19;;;;;;;;;;;34.60;60.80;;;;;;4997342;28;19961;-76
2022/08/12 11:07:47;;;;;;;;;;;34.80;59.70;;;;;;4997476;28;19906;-76
2022/08/12 11:10:12;;;;;;;;;;;34.80;59.70;;;;;;4995678;28;19925;-84
2022/08/12 11:12:43;;;;;;;;;;;34.80;59.50;;;;;;5003851;28;19913;-77
2022/08/12 11:15:09;;;;;;;;;;;34.40;59.20;;;;;;4996513;28;19932;-77
2022/08/12 11:17:35;;;;;;;;;;;33.90;60.00;;;;;;5000190;28;20346;-76
2022/08/12 11:20:01;;;;;;;;;;;34.50;60.40;;;;;;5005505;28;19913;-77
2022/08/12 11:22:27;;;;;;;;;;;34.90;60.00;;;;;;5010384;28;19910;-76
2022/08/12 11:24:52;;;;;;;;;;;35.10;59.40;;;;;;5007157;28;19909;-76
2022/08/12 11:27:18;;;;;;;;;;;34.70;59.80;;;;;;5016206;28;19921;-76
2022/08/12 11:29:44;;;;;;;;;;;34.90;59.70;;;;;;5015525;28;19924;-76
2022/08/12 11:32:09;;;;;;;;;;;34.60;59.40;;;;;;5012315;28;19973;-76
2022/08/12 11:34:35;;;;;;;;;;;34.50;59.00;;;;;;5016210;28;20528;-76
2022/08/12 11:37:04;;;;;;;;;;;34.40;58.70;;;;;;5011542;28;20341;-76
2022/08/12 11:39:33;;;;;;;;;;;34.50;58.40;;;;;;5015210;28;19956;-76
2022/08/12 11:41:59;;;;;;;;;;;35.10;57.90;;;;;;5016296;28;19909;-75
2022/08/12 11:44:25;;;;;;;;;;;35.60;58.20;;;;;;5015976;28;20023;-76
2022/08/12 11:46:52;;;;;;;;;;;35.20;57.60;;;;;;5016042;28;20318;-76
2022/08/12 11:49:18;;;;;;;;;;;35.40;58.30;;;;;;5015244;28;19929;-76
2022/08/12 11:51:43;;;;;;;;;;;35.40;57.50;;;;;;5007245;28;19905;-76
2022/08/12 11:54:09;;;;;;;;;;;34.90;57.30;;;;;;5009783;28;19910;-76
2022/08/12 11:56:35;;;;;;;;;;;34.80;57.20;;;;;;5015757;28;19909;-76
2022/08/12 11:59:00;;;;;;;;;;;35.40;57.80;;;;;;5015826;28;19991;-77
2022/08/12 12:01:26;;;;;;;;;;;36.30;57.30;;;;;;5010498;28;19918;-75
2022/08/12 12:03:52;;;;;;;;;;;36.30;57.60;;;;;;5005881;28;19909;-76
2022/08/12 12:06:19;;;;;;;;;;;35.90;56.70;;;;;;5000148;28;19913;-76
2022/08/12 12:08:45;;;;;;;;;;;35.70;56.10;;;;;;5005075;28;19921;-75
2022/08/12 12:11:11;;;;;;;;;;;36.10;56.50;;;;;;5000084;28;19968;-76
2022/08/12 12:13:36;;;;;;;;;;;35.80;56.20;;;;;;5000730;28;20282;-77
2022/08/12 12:16:02;;;;;;;;;;;36.00;56.10;;;;;;5001092;28;20313;-77
2022/08/12 12:18:29;;;;;;;;;;;35.50;56.00;;;;;;4984835;28;20405;-77
2022/08/12 12:20:56;;;;;;;;;;;35.10;56.90;;;;;;5006899;28;20446;-78
2022/08/12 12:23:22;;;;;;;;;;;35.30;56.10;;;;;;4998847;28;19997;-92
2022/08/12 12:25:48;;;;;;;;;;;35.50;55.60;;;;;;4993853;28;19956;-84
2022/08/12 12:28:14;;;;;;;;;;;35.70;56.00;;;;;;4995301;28;19913;-89
2022/08/12 12:30:40;;;;;;;;;;;36.10;56.60;;;;;;4995098;28;20397;-84
2022/08/12 12:33:07;;;;;;;;;;;35.90;56.10;;;;;;5006126;28;19925;-81
2022/08/12 12:35:33;;;;;;;;;;;35.40;55.90;;;;;;4992909;28;19965;-86
2022/08/12 12:38:00;;;;;;;;;;;35.40;55.80;;;;;;4994143;28;19909;-85
2022/08/12 12:40:26;;;;;;;;;;;35.20;55.40;;;;;;4994254;28;19956;-86
2022/08/12 12:42:52;;;;;;;;;;;35.60;56.00;;;;;;4997115;28;20301;-86
2022/08/12 12:45:18;;;;;;;;;;;35.90;56.00;;;;;;5002454;28;19913;-85
2022/08/12 12:47:59;;;;;;;;;;;36.30;55.20;;;;;;4997099;28;19910;-84
2022/08/12 12:50:25;;;;;;;;;;;36.40;54.90;;;;;;4994284;28;19921;-83
2022/08/12 12:52:51;;;;;;;;;;;36.50;55.50;;;;;;4999722;28;20351;-82
2022/08/12 12:55:17;;;;;;;;;;;36.40;54.10;;;;;;4996406;28;19956;-79
2022/08/12 12:57:44;;;;;;;;;;;36.30;54.30;;;;;;4994124;28;19948;-75
2022/08/12 13:00:17;;;;;;;;;;;35.90;53.80;;;;;;4998872;28;20430;-75
2022/08/12 13:02:51;;;;;;;;;;;36.80;55.10;;;;;;5000893;28;19929;-75
2022/08/12 13:05:17;;;;;;;;;;;36.30;53.60;;;;;;5002060;28;19918;-75
2022/08/12 13:07:43;;;;;;;;;;;35.90;54.50;;;;;;4993621;28;19910;-75
2022/08/12 13:10:09;;;;;;;;;;;36.70;54.30;;;;;;4993446;28;19932;-76
2022/08/12 13:12:35;;;;;;;;;;;37.50;52.70;;;;;;4995667;28;19913;-76
2022/08/12 13:15:02;;;;;;;;;;;38.70;53.30;;;;;;4999137;28;19925;-76
2022/08/12 13:17:31;;;;;;;;;;;39.50;53.50;;;;;;4993352;28;19910;-77
2022/08/12 13:20:04;;;;;;;;;;;39.80;53.30;;;;;;4993488;28;19914;-77
2022/08/12 13:22:30;;;;;;;;;;;38.50;52.40;;;;;;5005722;28;20000;-77
2022/08/12 13:24:58;;;;;;;;;;;37.90;53.10;;;;;;4999121;28;20440;-77
2022/08/12 13:27:32;;;;;;;;;;;39.90;53.30;;;;;;4994232;28;19964;-77
2022/08/12 13:29:57;;;;;;;;;;;40.00;52.60;;;;;;4993087;28;19921;-76
2022/08/12 13:32:28;;;;;;;;;;;39.70;51.40;;;;;;4992943;28;19987;-75
2022/08/12 13:34:59;;;;;;;;;;;39.70;51.80;;;;;;4993497;28;20476;-76
2022/08/12 13:37:25;;;;;;;;;;;38.40;51.80;;;;;;4991495;28;19963;-75
2022/08/12 13:39:51;;;;;;;;;;;38.50;52.30;;;;;;4997366;28;20367;-76
2022/08/12 13:42:21;;;;;;;;;;;40.00;52.00;;;;;;4999588;28;19909;-79
2022/08/12 13:44:53;;;;;;;;;;;40.50;51.10;;;;;;5005337;28;20398;-76
2022/08/12 13:47:22;;;;;;;;;;;41.10;50.90;;;;;;5004056;28;19916;-76
2022/08/12 13:49:48;;;;;;;;;;;41.70;51.20;;;;;;4991908;28;19918;-76
2022/08/12 13:52:17;;;;;;;;;;;41.10;51.00;;;;;;4992261;28;19916;-76
2022/08/12 13:54:46;;;;;;;;;;;40.10;50.70;;;;;;4991687;28;19913;-76
2022/08/12 13:57:13;;;;;;;;;;;40.60;50.70;;;;;;4992289;28;19910;-76
2022/08/12 13:59:40;;;;;;;;;;;40.50;49.50;;;;;;4993885;28;19913;-76
2022/08/12 14:02:11;;;;;;;;;;;40.60;51.00;;;;;;4994133;28;19921;-76
2022/08/12 14:04:40;;;;;;;;;;;42.20;51.00;;;;;;4993641;28;19910;-76
2022/08/12 14:07:06;;;;;;;;;;;43.20;49.50;;;;;;4992695;28;20062;-76
2022/08/12 14:10:34;;;;;;;;;;;43.50;50.30;;;;;;4993795;28;20012;-76
2022/08/12 14:12:20;;;;;;;;;;;42.90;49.80;;;;;;4993565;28;19909;-76
2022/08/12 14:14:49;;;;;;;;;;;43.90;48.50;;;;;;4993843;28;19917;-76
2022/08/12 14:17:17;;;;;;;;;;;44.60;48.00;;;;;;4997833;28;19912;-76
2022/08/12 14:20:12;;;;;;;;;;;44.10;47.70;;;;;;5013629;28;20394;-76
2022/08/12 14:22:30;;;;;;;;;;;43.30;48.30;;;;;;5013107;28;19910;-76
2022/08/12 14:24:57;;;;;;;;;;;41.40;48.70;;;;;;5013404;28;19940;-76
2022/08/12 14:27:27;;;;;;;;;;;41.40;49.10;;;;;;5013012;28;19917;-76
2022/08/12 14:29:53;;;;;;;;;;;41.60;48.80;;;;;;5013449;28;19917;-76
2022/08/12 14:32:19;;;;;;;;;;;41.20;49.00;;;;;;5013217;28;19909;-76
2022/08/12 14:34:51;;;;;;;;;;;41.50;48.70;;;;;;5012067;28;19971;-76
2022/08/12 14:37:17;;;;;;;;;;;41.10;49.00;;;;;;5012599;28;19916;-75
2022/08/12 14:39:44;;;;;;;;;;;40.80;48.80;;;;;;5013127;28;19909;-76
2022/08/12 14:42:10;;;;;;;;;;;42.00;49.20;;;;;;5012907;28;20404;-76
2022/08/12 14:44:36;;;;;;;;;;;42.20;49.00;;;;;;5011953;28;19949;-76
2022/08/12 14:47:02;;;;;;;;;;;42.30;48.70;;;;;;5013395;28;20362;-76
2022/08/12 14:49:28;;;;;;;;;;;40.90;48.60;;;;;;5012886;28;20408;-76
2022/08/12 14:51:54;;;;;;;;;;;40.20;49.00;;;;;;5013323;28;20000;-76
2022/08/12 14:54:19;;;;;;;;;;;40.10;50.10;;;;;;5013018;28;19909;-76
2022/08/12 14:56:49;;;;;;;;;;;42.00;49.70;;;;;;5013097;28;19909;-76
2022/08/12 15:01:59;;;;;;;;;;;44.70;48.20;;;;;;5001673;28;20464;-76
2022/08/12 15:04:27;;;;;;;;;;;44.00;48.40;;;;;;5012984;28;19968;-76
2022/08/12 15:06:53;;;;;;;;;;;44.70;47.50;;;;;;5008800;28;19909;-75
2022/08/12 15:09:19;;;;;;;;;;;44.20;48.10;;;;;;5005461;28;19928;-76
2022/08/12 15:11:47;;;;;;;;;;;43.80;48.10;;;;;;5008510;28;19918;-76
2022/08/12 15:14:12;;;;;;;;;;;43.50;47.80;;;;;;5003955;28;19910;-76
2022/08/12 15:16:38;;;;;;;;;;;43.80;47.40;;;;;;5000236;28;20371;-76
2022/08/12 15:19:04;;;;;;;;;;;44.00;47.10;;;;;;5011816;28;19967;-76
2022/08/12 15:21:30;;;;;;;;;;;45.00;47.40;;;;;;5012972;28;19925;-76
2022/08/12 15:23:56;;;;;;;;;;;43.40;46.80;;;;;;5011470;28;19948;-75
2022/08/12 15:26:22;;;;;;;;;;;43.50;47.40;;;;;;5012735;28;19948;-75
2022/08/12 15:28:48;;;;;;;;;;;42.90;47.30;;;;;;5004679;28;20393;-75
2022/08/12 15:31:18;;;;;;;;;;;44.00;47.40;;;;;;4993739;28;19920;-75
2022/08/12 15:33:44;;;;;;;;;;;44.00;47.50;;;;;;4993010;28;19909;-75
2022/08/12 15:36:10;;;;;;;;;;;41.60;47.10;;;;;;4992615;28;20367;-75
2022/08/12 15:38:36;;;;;;;;;;;40.50;47.30;;;;;;4992379;28;20012;-74
2022/08/12 15:41:03;;;;;;;;;;;41.40;47.60;;;;;;4992284;28;20402;-75
2022/08/12 15:43:29;;;;;;;;;;;42.60;47.50;;;;;;4990989;28;19952;-76
2022/08/12 15:45:56;;;;;;;;;;;41.50;47.10;;;;;;4992537;28;19906;-75
2022/08/12 15:48:24;;;;;;;;;;;40.30;47.20;;;;;;4991216;28;19961;-74
2022/08/12 15:50:50;;;;;;;;;;;40.90;47.70;;;;;;4999421;28;19917;-75
2022/08/12 15:53:16;;;;;;;;;;;42.30;47.80;;;;;;4998791;28;19955;-75
2022/08/12 15:55:42;;;;;;;;;;;42.80;47.20;;;;;;4995526;28;19968;-76